createdAt,value
2023-04-17T00:01:08.798Z,99.90
2023-04-17T00:03:38.001Z,99.90
2023-04-17T00:06:06.573Z,99.90
2023-04-17T00:08:34.967Z,99.90
2023-04-17T00:11:08.133Z,99.90
2023-04-17T00:13:37.262Z,99.90
2023-04-17T00:16:05.170Z,99.90
2023-04-17T00:18:33.022Z,99.90
2023-04-17T00:21:00.905Z,99.90
2023-04-17T00:23:28.688Z,99.90
2023-04-17T00:25:56.498Z,99.90
2023-04-17T00:28:24.452Z,99.90
2023-04-17T00:30:52.306Z,99.90
2023-04-17T00:33:20.454Z,99.90
2023-04-17T00:35:48.755Z,99.90
2023-04-17T00:38:16.684Z,99.90
2023-04-17T00:40:46.456Z,99.90
2023-04-17T00:43:14.295Z,99.90
2023-04-17T00:45:42.585Z,99.90
2023-04-17T00:48:13.362Z,99.90
2023-04-17T00:50:42.144Z,99.90
2023-04-17T00:53:10.720Z,99.90
2023-04-17T00:55:40.008Z,99.90
2023-04-17T00:58:08.229Z,99.90
2023-04-17T01:00:35.925Z,99.90
2023-04-17T01:03:04.337Z,99.90
2023-04-17T01:05:32.363Z,99.90
2023-04-17T01:08:00.105Z,99.90
2023-04-17T01:10:27.891Z,99.90
2023-04-17T01:13:06.954Z,99.90
2023-04-17T01:15:37.151Z,99.90
2023-04-17T01:18:06.324Z,99.90
2023-04-17T01:20:35.036Z,99.90
2023-04-17T01:23:02.879Z,99.90
2023-04-17T01:25:30.691Z,99.90
2023-04-17T01:27:58.504Z,99.90
2023-04-17T01:30:28.135Z,99.90
2023-04-17T01:33:01.264Z,99.90
2023-04-17T01:35:29.576Z,99.90
2023-04-17T01:37:57.422Z,99.90
2023-04-17T01:40:25.133Z,99.90
2023-04-17T01:42:52.968Z,99.90
2023-04-17T01:45:21.596Z,99.90
2023-04-17T01:47:49.468Z,99.90
2023-04-17T01:50:17.505Z,99.90
2023-04-17T01:52:45.792Z,99.90
2023-04-17T01:55:13.598Z,99.90
2023-04-17T01:57:42.587Z,99.90
2023-04-17T02:00:11.255Z,99.90
2023-04-17T02:02:43.972Z,99.90
2023-04-17T02:05:11.873Z,99.90
2023-04-17T02:07:39.668Z,99.90
2023-04-17T02:10:08.222Z,99.90
2023-04-17T02:12:37.637Z,99.90
2023-04-17T02:15:06.018Z,99.90
2023-04-17T02:17:34.186Z,99.90
2023-04-17T02:20:02.012Z,99.90
2023-04-17T02:22:32.536Z,99.90
2023-04-17T02:25:00.332Z,99.90
2023-04-17T02:27:28.550Z,99.90
2023-04-17T02:29:56.600Z,99.90
2023-04-17T02:32:24.503Z,99.90
2023-04-17T02:34:52.730Z,99.90
2023-04-17T02:37:21.331Z,99.90
2023-04-17T02:39:49.827Z,99.90
2023-04-17T02:42:17.615Z,99.90
2023-04-17T02:44:46.674Z,99.90
2023-04-17T02:47:14.414Z,99.90
2023-04-17T02:49:42.197Z,99.90
2023-04-17T02:52:09.917Z,99.90
2023-04-17T02:54:37.714Z,99.90
2023-04-17T02:57:06.816Z,99.90
2023-04-17T02:59:34.739Z,99.90
2023-04-17T03:02:04.221Z,99.90
2023-04-17T03:04:34.719Z,99.90
2023-04-17T03:07:02.461Z,99.90
2023-04-17T03:09:31.200Z,99.90
2023-04-17T03:11:59.072Z,99.90
2023-04-17T03:14:26.781Z,99.90
2023-04-17T03:16:54.692Z,99.90
2023-04-17T03:19:22.627Z,99.90
2023-04-17T03:21:51.729Z,99.90
2023-04-17T03:24:19.696Z,99.90
2023-04-17T03:26:47.432Z,99.90
2023-04-17T03:29:19.509Z,99.90
2023-04-17T03:31:47.444Z,99.90
2023-04-17T03:34:15.566Z,99.90
2023-04-17T03:36:43.427Z,99.90
2023-04-17T03:39:11.566Z,99.90
2023-04-17T03:41:40.073Z,99.90
2023-04-17T03:44:11.085Z,99.90
2023-04-17T03:46:39.482Z,99.90
2023-04-17T03:49:08.248Z,99.90
2023-04-17T03:51:36.070Z,99.90
2023-04-17T03:54:11.662Z,99.90
2023-04-17T03:56:40.372Z,99.90
2023-04-17T03:59:08.664Z,99.90
2023-04-17T04:01:44.249Z,99.90
2023-04-17T04:04:18.729Z,99.90
2023-04-17T04:06:47.391Z,99.90
2023-04-17T04:09:17.076Z,99.90
2023-04-17T04:11:44.932Z,99.90
2023-04-17T04:14:13.207Z,99.90
2023-04-17T04:16:41.464Z,99.90
2023-04-17T04:19:13.941Z,99.90
2023-04-17T04:21:43.713Z,99.90
2023-04-17T04:24:14.408Z,99.90
2023-04-17T04:26:43.876Z,99.90
2023-04-17T04:29:14.383Z,99.90
2023-04-17T04:31:52.386Z,99.90
2023-04-17T04:34:26.045Z,99.90
2023-04-17T04:36:54.103Z,99.90
2023-04-17T04:39:30.724Z,99.90
2023-04-17T04:42:06.103Z,99.90
2023-04-17T04:44:45.016Z,99.90
2023-04-17T04:47:13.821Z,99.90
2023-04-17T04:49:41.930Z,99.90
2023-04-17T04:52:10.669Z,99.90
2023-04-17T04:54:38.525Z,99.90
2023-04-17T04:57:06.398Z,99.90
2023-04-17T04:59:34.632Z,99.90
2023-04-17T05:02:22.320Z,99.90
2023-04-17T05:04:50.960Z,99.90
2023-04-17T05:07:18.921Z,99.90
2023-04-17T05:09:47.105Z,99.90
2023-04-17T05:12:17.072Z,99.90
2023-04-17T05:14:46.178Z,99.90
2023-04-17T05:17:14.496Z,99.90
2023-04-17T05:19:42.251Z,99.90
2023-04-17T05:22:11.350Z,99.90
2023-04-17T05:24:50.782Z,99.90
2023-04-17T05:27:18.559Z,99.90
2023-04-17T05:29:46.621Z,99.90
2023-04-17T05:32:14.512Z,99.90
2023-04-17T05:34:59.029Z,99.90
2023-04-17T05:37:28.602Z,99.90
2023-04-17T05:39:56.920Z,99.90
2023-04-17T05:42:24.585Z,99.90
2023-04-17T05:44:52.607Z,99.90
2023-04-17T05:47:20.461Z,99.90
2023-04-17T05:49:51.285Z,99.90
2023-04-17T05:52:19.194Z,99.90
2023-04-17T05:54:47.079Z,99.90
2023-04-17T05:57:14.936Z,99.90
2023-04-17T05:59:43.511Z,99.90
2023-04-17T06:02:11.720Z,99.90
2023-04-17T06:04:39.853Z,99.90
2023-04-17T06:07:08.371Z,99.90
2023-04-17T06:09:38.322Z,99.90
2023-04-17T06:12:06.473Z,99.90
2023-04-17T06:14:34.425Z,99.90
2023-04-17T06:17:06.431Z,99.90
2023-04-17T06:19:34.238Z,99.90
2023-04-17T06:22:01.978Z,99.90
2023-04-17T06:24:29.789Z,99.90
2023-04-17T06:26:58.221Z,99.90
2023-04-17T06:29:26.401Z,99.90
2023-04-17T06:31:54.272Z,99.90
2023-04-17T06:34:23.535Z,99.90
2023-04-17T06:36:51.970Z,99.90
2023-04-17T06:39:20.504Z,99.90
2023-04-17T06:41:48.891Z,99.90
2023-04-17T06:44:26.491Z,99.90
2023-04-17T06:46:55.825Z,99.90
2023-04-17T06:49:25.312Z,99.90
2023-04-17T06:51:53.511Z,99.90
2023-04-17T06:54:21.673Z,99.90
2023-04-17T06:56:49.881Z,99.90
2023-04-17T06:59:18.831Z,99.90
2023-04-17T07:01:47.297Z,99.90
2023-04-17T07:04:15.756Z,99.90
2023-04-17T07:06:43.968Z,99.90
2023-04-17T07:09:12.461Z,99.90
2023-04-17T07:11:41.020Z,99.90
2023-04-17T07:14:10.340Z,99.90
2023-04-17T07:16:40.828Z,99.90
2023-04-17T07:19:09.543Z,99.90
2023-04-17T07:21:37.748Z,99.90
2023-04-17T07:24:06.000Z,99.90
2023-04-17T07:26:34.050Z,99.90
2023-04-17T07:29:02.243Z,99.90
2023-04-17T07:31:30.573Z,99.90
2023-04-17T07:34:00.734Z,99.90
2023-04-17T07:36:30.135Z,99.90
2023-04-17T07:38:57.982Z,99.90
2023-04-17T07:41:25.838Z,99.90
2023-04-17T07:43:53.735Z,99.90
2023-04-17T07:46:21.461Z,99.90
2023-04-17T07:48:49.370Z,99.90
2023-04-17T07:51:17.078Z,99.90
2023-04-17T07:53:44.848Z,99.90
2023-04-17T07:56:13.397Z,99.90
2023-04-17T07:58:42.252Z,99.90
2023-04-17T08:01:10.181Z,99.90
2023-04-17T08:03:41.869Z,99.90
2023-04-17T08:06:09.934Z,99.90
2023-04-17T08:08:37.871Z,99.90
2023-04-17T08:11:05.733Z,99.90
2023-04-17T08:13:33.466Z,99.90
2023-04-17T08:16:01.677Z,99.90
2023-04-17T08:18:29.428Z,99.90
2023-04-17T08:20:57.206Z,99.90
2023-04-17T08:23:25.217Z,99.90
2023-04-17T08:25:52.951Z,99.90
2023-04-17T08:28:21.274Z,99.90
2023-04-17T08:30:49.003Z,99.90
2023-04-17T08:33:18.490Z,99.90
2023-04-17T08:35:46.594Z,99.90
2023-04-17T08:38:15.081Z,99.90
2023-04-17T08:40:46.783Z,99.90
2023-04-17T08:43:20.245Z,99.90
2023-04-17T08:45:55.748Z,99.90
2023-04-17T08:48:24.706Z,99.90
2023-04-17T08:50:53.754Z,99.90
2023-04-17T08:53:22.088Z,99.90
2023-04-17T08:55:50.319Z,99.90
2023-04-17T08:58:18.092Z,99.90
2023-04-17T09:00:46.234Z,99.90
2023-04-17T09:03:15.874Z,99.90
2023-04-17T09:05:46.382Z,99.90
2023-04-17T09:08:16.292Z,99.90
2023-04-17T09:10:47.521Z,99.90
2023-04-17T09:13:18.018Z,99.90
2023-04-17T09:15:48.946Z,99.90
2023-04-17T09:18:28.162Z,99.90
2023-04-17T09:20:57.764Z,99.90
2023-04-17T09:23:29.984Z,99.90
2023-04-17T09:26:09.938Z,99.90
2023-04-17T09:28:41.895Z,99.90
2023-04-17T09:31:19.391Z,99.90
2023-04-17T09:34:00.153Z,99.90
2023-04-17T09:36:30.774Z,99.90
2023-04-17T09:39:05.042Z,99.90
2023-04-17T09:41:39.383Z,99.90
2023-04-17T09:44:07.539Z,99.90
2023-04-17T09:46:39.222Z,99.90
2023-04-17T09:49:55.920Z,99.90
2023-04-17T09:52:24.713Z,99.90
2023-04-17T09:54:54.026Z,99.90
2023-04-17T09:57:22.022Z,99.90
2023-04-17T09:59:50.046Z,99.90
2023-04-17T10:02:20.285Z,99.90
2023-04-17T10:04:48.519Z,99.90
2023-04-17T10:07:17.419Z,99.90
2023-04-17T10:09:46.020Z,99.90
2023-04-17T10:12:18.874Z,99.90
2023-04-17T10:14:50.296Z,99.90
2023-04-17T10:17:34.247Z,99.90
2023-04-17T10:20:35.641Z,99.90
2023-04-17T10:23:27.374Z,99.90
2023-04-17T10:26:25.949Z,99.90
2023-04-17T10:28:55.303Z,99.90
2023-04-17T10:31:43.250Z,99.90
2023-04-17T10:34:37.510Z,99.90
2023-04-17T10:37:05.448Z,99.90
2023-04-17T10:42:30.682Z,99.90
2023-04-17T10:45:01.903Z,98.60
2023-04-17T10:47:34.940Z,99.40
2023-04-17T10:50:04.740Z,99.00
2023-04-17T10:52:32.391Z,98.00
2023-04-17T10:55:03.494Z,98.10
2023-04-17T10:58:12.141Z,95.50
2023-04-17T11:00:51.175Z,95.80
2023-04-17T11:03:22.485Z,95.70
2023-04-17T11:05:50.426Z,94.20
2023-04-17T11:08:18.164Z,95.60
2023-04-17T11:10:46.145Z,95.20
2023-04-17T11:13:16.137Z,95.20
2023-04-17T11:15:44.557Z,94.30
2023-04-17T11:18:12.832Z,92.50
2023-04-17T11:20:41.667Z,90.20
2023-04-17T11:23:09.869Z,91.40
2023-04-17T11:25:40.695Z,92.70
2023-04-17T11:28:09.922Z,92.40
2023-04-17T11:30:42.660Z,92.40
2023-04-17T11:33:12.810Z,92.40
2023-04-17T11:35:43.112Z,91.60
2023-04-17T11:38:14.157Z,92.70
2023-04-17T11:40:53.698Z,93.30
2023-04-17T11:43:22.950Z,92.00
2023-04-17T11:45:53.225Z,92.00
2023-04-17T11:48:23.551Z,91.70
2023-04-17T11:51:00.335Z,92.10
2023-04-17T11:53:28.292Z,88.30
2023-04-17T11:56:15.963Z,87.80
2023-04-17T11:58:52.445Z,90.40
2023-04-17T12:01:24.938Z,90.90
2023-04-17T12:03:54.585Z,90.60
2023-04-17T12:06:22.513Z,91.20
2023-04-17T12:08:52.526Z,91.80
2023-04-17T12:11:31.725Z,88.00
2023-04-17T12:14:00.762Z,86.40
2023-04-17T12:16:29.571Z,88.50
2023-04-17T12:18:57.504Z,86.80
2023-04-17T12:21:25.533Z,88.50
2023-04-17T12:23:53.408Z,90.00
2023-04-17T12:26:21.423Z,88.90
2023-04-17T12:28:49.208Z,86.20
2023-04-17T12:31:17.212Z,85.70
2023-04-17T12:33:45.720Z,86.90
2023-04-17T12:36:13.618Z,88.50
2023-04-17T12:38:43.221Z,89.40
2023-04-17T12:41:11.264Z,89.40
2023-04-17T12:43:39.177Z,88.00
2023-04-17T12:46:07.573Z,87.30
2023-04-17T12:48:35.363Z,87.30
2023-04-17T12:51:03.272Z,87.70
2023-04-17T12:53:31.041Z,89.90
2023-04-17T12:55:58.962Z,89.20
2023-04-17T12:58:27.060Z,88.80
2023-04-17T13:00:54.810Z,88.50
2023-04-17T13:03:22.905Z,89.70
2023-04-17T13:05:53.403Z,89.80
2023-04-17T13:08:21.588Z,90.50
2023-04-17T13:10:49.285Z,90.30
2023-04-17T13:13:17.216Z,90.00
2023-04-17T13:15:47.910Z,90.30
2023-04-17T13:18:16.186Z,90.10
2023-04-17T13:20:44.213Z,90.90
2023-04-17T13:23:12.173Z,90.20
2023-04-17T13:25:40.026Z,88.80
2023-04-17T13:28:07.905Z,90.10
2023-04-17T13:30:37.551Z,90.40
2023-04-17T13:33:05.732Z,90.10
2023-04-17T13:35:33.656Z,91.50
2023-04-17T13:38:03.425Z,91.70
2023-04-17T13:40:31.825Z,92.40
2023-04-17T13:43:01.116Z,91.90
2023-04-17T13:45:29.329Z,91.50
2023-04-17T13:47:57.995Z,90.80
2023-04-17T13:50:26.147Z,90.90
2023-04-17T13:52:53.877Z,90.00
2023-04-17T13:55:21.592Z,89.50
2023-04-17T13:57:49.361Z,91.00
2023-04-17T14:00:18.522Z,91.50
2023-04-17T14:02:46.629Z,92.40
2023-04-17T14:05:14.573Z,92.40
2023-04-17T14:07:43.722Z,91.70
2023-04-17T14:10:11.768Z,92.10
2023-04-17T14:12:39.563Z,92.20
2023-04-17T14:15:07.972Z,92.00
2023-04-17T14:17:38.274Z,92.00
2023-04-17T14:20:07.071Z,92.20
2023-04-17T14:22:35.035Z,92.00
2023-04-17T14:25:03.066Z,92.10
2023-04-17T14:27:30.922Z,92.80
2023-04-17T14:30:01.060Z,91.60
2023-04-17T14:32:29.118Z,92.40
2023-04-17T14:34:56.825Z,91.80
2023-04-17T14:37:24.633Z,92.00
2023-04-17T14:39:52.452Z,92.50
2023-04-17T14:42:20.263Z,90.80
2023-04-17T14:44:48.181Z,91.20
2023-04-17T14:47:16.606Z,91.00
2023-04-17T14:49:44.423Z,91.00
2023-04-17T14:52:12.185Z,91.80
2023-04-17T14:54:40.045Z,92.50
2023-04-17T14:57:08.572Z,92.30
2023-04-17T14:59:36.473Z,92.00
2023-04-17T15:02:07.452Z,91.90
2023-04-17T15:04:35.532Z,91.90
2023-04-17T15:07:04.886Z,91.80
2023-04-17T15:09:32.704Z,92.00
2023-04-17T15:12:01.947Z,92.50
2023-04-17T15:14:30.098Z,92.10
2023-04-17T15:16:59.239Z,91.80
2023-04-17T15:19:27.079Z,92.30
2023-04-17T15:21:54.801Z,93.20
2023-04-17T15:24:22.533Z,93.30
2023-04-17T15:26:51.456Z,93.10
2023-04-17T15:29:19.271Z,92.90
2023-04-17T15:31:47.053Z,94.30
2023-04-17T15:34:14.808Z,94.30
2023-04-17T15:36:42.680Z,94.50
2023-04-17T15:39:11.074Z,94.40
2023-04-17T15:41:40.503Z,94.10
2023-04-17T15:44:08.284Z,94.20
2023-04-17T15:46:36.098Z,93.60
2023-04-17T15:49:08.368Z,94.10
2023-04-17T15:51:38.038Z,94.50
2023-04-17T15:54:06.901Z,94.00
2023-04-17T15:56:34.765Z,93.90
2023-04-17T15:59:02.777Z,93.80
2023-04-17T16:01:30.851Z,93.60
2023-04-17T16:03:58.919Z,93.70
2023-04-17T16:06:27.651Z,94.00
2023-04-17T16:08:55.576Z,94.30
2023-04-17T16:11:23.832Z,94.50
2023-04-17T16:13:51.716Z,94.70
2023-04-17T16:16:19.571Z,94.90
2023-04-17T16:18:47.884Z,94.90
2023-04-17T16:21:15.605Z,95.50
2023-04-17T16:23:45.957Z,95.20
2023-04-17T16:26:14.515Z,96.00
2023-04-17T16:28:43.306Z,96.00
2023-04-17T16:31:11.604Z,95.90
2023-04-17T16:33:39.897Z,96.20
2023-04-17T16:36:08.113Z,96.70
2023-04-17T16:38:35.919Z,96.50
2023-04-17T16:41:04.410Z,96.50
2023-04-17T16:43:32.200Z,96.00
2023-04-17T16:46:03.284Z,96.50
2023-04-17T16:48:36.505Z,96.80
2023-04-17T16:51:07.275Z,97.60
2023-04-17T16:53:35.181Z,98.00
2023-04-17T16:56:03.035Z,97.40
2023-04-17T16:58:30.819Z,97.90
2023-04-17T17:00:59.421Z,98.40
2023-04-17T17:03:29.889Z,98.90
2023-04-17T17:05:58.320Z,99.10
2023-04-17T17:08:26.960Z,98.70
2023-04-17T17:10:55.472Z,98.70
2023-04-17T17:13:25.885Z,98.60
2023-04-17T17:15:53.783Z,99.00
2023-04-17T17:18:21.591Z,98.80
2023-04-17T17:20:50.607Z,98.90
2023-04-17T17:23:18.416Z,98.60
2023-04-17T17:25:46.196Z,99.50
2023-04-17T17:28:13.891Z,99.70
2023-04-17T17:30:41.672Z,99.40
2023-04-17T17:33:09.613Z,99.80
2023-04-17T17:35:37.533Z,99.80
2023-04-17T17:38:05.362Z,99.90
2023-04-17T17:40:33.157Z,99.90
2023-04-17T17:43:01.582Z,99.90
2023-04-17T17:45:29.356Z,99.90
2023-04-17T17:47:56.997Z,99.90
2023-04-17T17:50:24.868Z,99.90
2023-04-17T17:52:52.694Z,99.90
2023-04-17T17:55:20.690Z,99.90
2023-04-17T17:57:49.691Z,99.90
2023-04-17T18:00:17.993Z,99.90
2023-04-17T18:02:46.153Z,99.90
2023-04-17T18:05:14.032Z,99.90
2023-04-17T18:07:43.433Z,99.90
2023-04-17T18:10:11.386Z,99.90
2023-04-17T18:12:39.256Z,99.90
2023-04-17T18:15:07.771Z,99.90
2023-04-17T18:17:35.832Z,99.90
2023-04-17T18:20:04.092Z,99.90
2023-04-17T18:22:32.013Z,99.90
2023-04-17T18:24:59.842Z,99.90
2023-04-17T18:27:27.778Z,99.90
2023-04-17T18:29:55.541Z,99.90
2023-04-17T18:32:23.320Z,99.90
2023-04-17T18:34:51.523Z,99.90
2023-04-17T18:37:19.317Z,99.90
2023-04-17T18:39:47.189Z,99.90
2023-04-17T18:42:15.384Z,99.90
2023-04-17T18:44:43.441Z,99.90
2023-04-17T18:47:11.292Z,99.90
2023-04-17T18:49:39.036Z,99.90
2023-04-17T18:52:06.828Z,99.90
2023-04-17T18:54:35.842Z,99.90
2023-04-17T18:57:03.629Z,99.90
2023-04-17T18:59:31.453Z,99.90
2023-04-17T19:01:59.314Z,99.90
2023-04-17T19:04:27.121Z,99.90
2023-04-17T19:06:54.880Z,99.90
2023-04-17T19:09:22.748Z,99.90
2023-04-17T19:11:50.596Z,99.90
2023-04-17T19:14:18.325Z,99.90
2023-04-17T19:16:47.414Z,99.90
2023-04-17T19:19:15.784Z,99.90
2023-04-17T19:21:43.632Z,99.90
2023-04-17T19:24:11.455Z,99.90
2023-04-17T19:26:39.253Z,99.90
2023-04-17T19:29:07.174Z,99.90
2023-04-17T19:31:35.417Z,99.90
2023-04-17T19:34:03.240Z,99.90
2023-04-17T19:36:31.454Z,99.90
2023-04-17T19:38:59.931Z,99.90
2023-04-17T19:41:28.777Z,99.90
2023-04-17T19:43:56.581Z,99.90
2023-04-17T19:46:26.404Z,99.90
2023-04-17T19:48:54.363Z,99.90
2023-04-17T19:51:22.172Z,99.90
2023-04-17T19:53:50.065Z,99.90
2023-04-17T19:56:17.904Z,99.90
2023-04-17T19:58:47.112Z,99.90
2023-04-17T20:01:15.487Z,99.90
2023-04-17T20:03:45.353Z,99.90
2023-04-17T20:06:14.130Z,99.90
2023-04-17T20:08:41.945Z,99.90
2023-04-17T20:11:12.318Z,99.90
2023-04-17T20:13:40.244Z,99.90
2023-04-17T20:16:08.472Z,99.90
2023-04-17T20:18:37.507Z,99.90
2023-04-17T20:21:06.591Z,99.90
2023-04-17T20:23:34.444Z,99.90
2023-04-17T20:26:03.519Z,99.90
2023-04-17T20:28:31.284Z,99.90
2023-04-17T20:30:59.187Z,99.90
2023-04-17T20:33:27.558Z,99.90
2023-04-17T20:35:55.506Z,99.90
2023-04-17T20:38:23.478Z,99.90
2023-04-17T20:40:51.553Z,99.90
2023-04-17T20:43:19.337Z,99.90
2023-04-17T20:45:48.533Z,99.90
2023-04-17T20:48:16.777Z,99.90
2023-04-17T20:50:44.578Z,99.90
2023-04-17T20:53:12.351Z,99.90
2023-04-17T20:55:40.097Z,99.90
2023-04-17T20:58:07.986Z,99.90
2023-04-17T21:00:37.202Z,99.90
2023-04-17T21:03:06.626Z,99.90
2023-04-17T21:05:34.540Z,99.90
2023-04-17T21:08:03.002Z,99.90
2023-04-17T21:10:30.747Z,99.90
2023-04-17T21:12:58.659Z,99.90
2023-04-17T21:15:26.402Z,99.90
2023-04-17T21:17:54.306Z,99.90
2023-04-17T21:20:22.236Z,99.90
2023-04-17T21:22:50.040Z,99.90
2023-04-17T21:25:17.886Z,99.90
2023-04-17T21:27:45.690Z,99.90
2023-04-17T21:30:13.595Z,99.90
2023-04-17T21:32:42.676Z,99.90
2023-04-17T21:35:11.008Z,99.90
2023-04-17T21:37:38.676Z,99.90
2023-04-17T21:40:07.239Z,99.90
2023-04-17T21:42:35.091Z,99.90
2023-04-17T21:45:02.864Z,99.90
2023-04-17T21:47:30.713Z,99.90
2023-04-17T21:50:00.480Z,99.90
2023-04-17T21:52:28.596Z,99.90
2023-04-17T21:55:03.196Z,99.90
2023-04-17T21:57:34.964Z,99.90
2023-04-17T22:00:05.674Z,99.90
2023-04-17T22:02:34.452Z,99.90
2023-04-17T22:05:02.199Z,99.90
2023-04-17T22:07:30.149Z,99.90
2023-04-17T22:10:00.411Z,99.90
2023-04-17T22:12:29.301Z,99.90
2023-04-17T22:14:57.014Z,99.90
2023-04-17T22:17:24.841Z,99.90
2023-04-17T22:19:52.669Z,99.90
2023-04-17T22:22:20.386Z,99.90
2023-04-17T22:24:47.992Z,99.90
2023-04-17T22:27:15.761Z,99.90
2023-04-17T22:29:43.523Z,99.90
2023-04-17T22:32:11.380Z,99.90
2023-04-17T22:34:41.198Z,99.90
2023-04-17T22:37:10.091Z,99.90
2023-04-17T22:39:37.849Z,99.90
2023-04-17T22:42:05.666Z,99.90
2023-04-17T22:44:33.512Z,99.90
2023-04-17T22:47:01.229Z,99.90
2023-04-17T22:49:28.887Z,99.90
2023-04-17T22:51:56.618Z,99.90
2023-04-17T22:54:24.602Z,99.90
2023-04-17T22:56:52.562Z,99.90
2023-04-17T22:59:20.329Z,99.90
2023-04-17T23:01:48.193Z,99.90
2023-04-17T23:04:16.144Z,99.90
2023-04-17T23:06:44.055Z,99.90
2023-04-17T23:09:12.270Z,99.90
2023-04-17T23:11:40.127Z,99.90
2023-04-17T23:14:08.057Z,99.90
2023-04-17T23:16:35.749Z,99.90
2023-04-17T23:19:03.631Z,99.90
2023-04-17T23:21:31.537Z,99.90
2023-04-17T23:23:59.269Z,99.90
2023-04-17T23:26:27.224Z,99.90
2023-04-17T23:28:54.928Z,99.90
2023-04-17T23:31:22.628Z,99.90
2023-04-17T23:33:50.461Z,99.90
2023-04-17T23:36:18.320Z,99.90
2023-04-17T23:38:46.131Z,99.90
2023-04-17T23:41:13.921Z,99.90
2023-04-17T23:43:41.737Z,99.90
2023-04-17T23:46:10.092Z,99.90
2023-04-17T23:48:37.994Z,99.90
2023-04-17T23:51:06.063Z,99.90
2023-04-17T23:53:33.986Z,99.90
2023-04-17T23:56:02.239Z,99.90
2023-04-17T23:58:29.998Z,99.90
